BBC Polonia — V2EZ6 — position and weather

sailwx.info

Track history (hours):
 
Tides and Currents Weather Stations Pressure Air Temp Water Temp Dewpoint Dewpoint Depression Visibility Wind Speed Wind Dir Waves Ship Positions

BBC Polonia

Last reported at 2017-Nov-17 21:00 UTC. Time now 2017-Nov-17 21:31 UTC.
Position N 50°00' W 001°51'.

Length 123 m; draft 5.4 m.

Type: Cargo ship. MMSI: 305614000.

Date/timePositionNaut miles runAvg speedWind from/ knotsBaromVisibWave heightAir tempDewpointWater temp
2017-Nov-17 21:00N 50°00' W 001°51'  
2017-Nov-15 09:40N 39°32' W 009°51'212.8
2017-Nov-15 09:30N 39°30' W 009°51'712.8
2017-Nov-15 08:58N 39°23' W 009°51'612.9
2017-Nov-15 08:30N 39°17' W 009°51'713.2
2017-Nov-15 08:00N 39°10' W 009°51'713.2
2017-Nov-15 07:30N 39°04' W 009°52'613.0
2017-Nov-15 07:01N 38°57' W 009°51'713.0
2017-Nov-15 06:31N 38°51' W 009°51'713.1
2017-Nov-15 06:01N 38°44' W 009°51'612.8
2017-Nov-15 05:30N 38°38' W 009°50'612.7
2017-Nov-15 05:01N 38°32' W 009°48'612.6
2017-Nov-15 04:31N 38°25' W 009°47'1712.4
2017-Nov-15 03:06N 38°08' W 009°42'213.2
2017-Nov-15 02:56N 38°06' W 009°41'613.1
2017-Nov-15 02:27N 37°60' W 009°39'23711.4
2017-Nov-14 05:37N 36°02' W 005°23'4 4.5
2017-Nov-14 04:41N 36°06' W 005°23'1 4.4
2017-Nov-14 04:30N 36°07' W 005°23'  
2017-Nov-09 17:21N 36°43' E 013°52'512.6
2017-Nov-09 16:57N 36°41' E 013°58'  
Track history (hours):
 
Tides and Currents Weather Stations Pressure Air Temp Water Temp Dewpoint Dewpoint Depression Visibility Wind Speed Wind Dir Waves Ship Positions

BBC Polonia

Last reported at 2017-Nov-17 21:00 UTC. Time now 2017-Nov-17 21:31 UTC.
Position N 50°00' W 001°51'.

Length 123 m; draft 5.4 m.

Type: Cargo ship. MMSI: 305614000.

Date/timePositionNaut miles runAvg speedWind from/ knotsBaromVisibWave heightAir tempDewpointWater temp
2017-Nov-17 21:00N 50°00' W 001°51'  
2017-Nov-15 09:40N 39°32' W 009°51'212.8
2017-Nov-15 09:30N 39°30' W 009°51'712.8
2017-Nov-15 08:58N 39°23' W 009°51'612.9
2017-Nov-15 08:30N 39°17' W 009°51'713.2
2017-Nov-15 08:00N 39°10' W 009°51'713.2
2017-Nov-15 07:30N 39°04' W 009°52'613.0
2017-Nov-15 07:01N 38°57' W 009°51'713.0
2017-Nov-15 06:31N 38°51' W 009°51'713.1
2017-Nov-15 06:01N 38°44' W 009°51'612.8
2017-Nov-15 05:30N 38°38' W 009°50'612.7
2017-Nov-15 05:01N 38°32' W 009°48'612.6
2017-Nov-15 04:31N 38°25' W 009°47'1712.4
2017-Nov-15 03:06N 38°08' W 009°42'213.2
2017-Nov-15 02:56N 38°06' W 009°41'613.1
2017-Nov-15 02:27N 37°60' W 009°39'23711.4
2017-Nov-14 05:37N 36°02' W 005°23'4 4.5
2017-Nov-14 04:41N 36°06' W 005°23'1 4.4
2017-Nov-14 04:30N 36°07' W 005°23'  
2017-Nov-09 17:21N 36°43' E 013°52'512.6
2017-Nov-09 16:57N 36°41' E 013°58'  

Dump ship's entire track history